sensor_id;sensor_type;location;lat;lon;timestamp;pressure;altitude;pressure_sealevel;temperature;humidity
15405;BME280;7801;48.124;11.590;2024-01-27T00:00:17;96957.91;;;7.65;92.97
15405;BME280;7801;48.124;11.590;2024-01-27T00:02:43;96963.75;;;8.07;94.83
15405;BME280;7801;48.124;11.590;2024-01-27T00:05:08;96974.44;;;8.28;92.75
15405;BME280;7801;48.124;11.590;2024-01-27T00:07:33;96973.88;;;8.26;89.17
15405;BME280;7801;48.124;11.590;2024-01-27T00:09:59;96976.09;;;8.46;91.54
15405;BME280;7801;48.124;11.590;2024-01-27T00:12:25;96972.75;;;8.84;92.38
15405;BME280;7801;48.124;11.590;2024-01-27T00:14:50;96970.97;;;8.73;90.36
15405;BME280;7801;48.124;11.590;2024-01-27T00:17:16;96974.25;;;8.47;84.68
15405;BME280;7801;48.124;11.590;2024-01-27T00:19:41;96969.28;;;7.65;85.34
15405;BME280;7801;48.124;11.590;2024-01-27T00:22:07;96977.38;;;7.00;88.58
15405;BME280;7801;48.124;11.590;2024-01-27T00:24:33;96969.44;;;6.77;89.71
15405;BME280;7801;48.124;11.590;2024-01-27T00:26:59;96959.53;;;6.49;90.66
15405;BME280;7801;48.124;11.590;2024-01-27T00:29:24;96957.69;;;6.49;91.33
15405;BME280;7801;48.124;11.590;2024-01-27T00:31:50;96961.97;;;6.62;90.79
15405;BME280;7801;48.124;11.590;2024-01-27T00:34:16;96951.97;;;6.41;92.37
15405;BME280;7801;48.124;11.590;2024-01-27T00:36:41;96957.75;;;5.90;94.82
15405;BME280;7801;48.124;11.590;2024-01-27T00:39:13;96965.50;;;5.66;95.79
15405;BME280;7801;48.124;11.590;2024-01-27T00:41:39;96960.91;;;5.43;97.01
15405;BME280;7801;48.124;11.590;2024-01-27T00:44:05;96956.09;;;5.59;97.55
15405;BME280;7801;48.124;11.590;2024-01-27T00:46:30;96950.84;;;5.59;97.32
15405;BME280;7801;48.124;11.590;2024-01-27T00:48:55;96959.41;;;5.36;98.58
15405;BME280;7801;48.124;11.590;2024-01-27T00:51:21;96965.91;;;5.33;98.66
15405;BME280;7801;48.124;11.590;2024-01-27T00:53:46;96961.50;;;5.27;98.31
15405;BME280;7801;48.124;11.590;2024-01-27T00:56:11;96955.22;;;5.46;98.60
15405;BME280;7801;48.124;11.590;2024-01-27T00:58:37;96954.63;;;5.26;99.26
15405;BME280;7801;48.124;11.590;2024-01-27T01:01:02;96950.97;;;5.27;99.14
15405;BME280;7801;48.124;11.590;2024-01-27T01:03:28;96952.00;;;5.26;99.60
15405;BME280;7801;48.124;11.590;2024-01-27T01:05:53;96965.53;;;5.48;98.69
15405;BME280;7801;48.124;11.590;2024-01-27T01:08:19;96973.69;;;5.03;100.00
15405;BME280;7801;48.124;11.590;2024-01-27T01:10:44;96966.16;;;5.07;100.00
15405;BME280;7801;48.124;11.590;2024-01-27T01:13:10;96975.37;;;4.98;100.00
15405;BME280;7801;48.124;11.590;2024-01-27T01:15:35;96982.97;;;5.06;100.00
15405;BME280;7801;48.124;11.590;2024-01-27T01:18:01;96981.91;;;4.89;100.00
15405;BME280;7801;48.124;11.590;2024-01-27T01:20:26;96990.53;;;4.77;100.00
15405;BME280;7801;48.124;11.590;2024-01-27T01:22:52;96978.69;;;4.87;100.00
15405;BME280;7801;48.124;11.590;2024-01-27T01:25:18;96986.41;;;4.81;100.00
15405;BME280;7801;48.124;11.590;2024-01-27T01:27:44;96974.78;;;4.71;100.00
15405;BME280;7801;48.124;11.590;2024-01-27T01:30:10;96975.25;;;4.61;100.00
15405;BME280;7801;48.124;11.590;2024-01-27T01:32:35;96983.72;;;5.13;100.00
15405;BME280;7801;48.124;11.590;2024-01-27T01:35:01;96984.94;;;4.67;100.00
15405;BME280;7801;48.124;11.590;2024-01-27T01:37:26;96992.22;;;4.65;100.00
15405;BME280;7801;48.124;11.590;2024-01-27T01:39:52;96997.69;;;4.89;100.00
15405;BME280;7801;48.124;11.590;2024-01-27T01:42:17;96992.56;;;4.75;100.00
15405;BME280;7801;48.124;11.590;2024-01-27T01:44:43;96989.22;;;4.62;100.00
15405;BME280;7801;48.124;11.590;2024-01-27T01:47:08;96991.84;;;4.62;100.00
15405;BME280;7801;48.124;11.590;2024-01-27T01:49:34;96994.09;;;4.58;100.00
15405;BME280;7801;48.124;11.590;2024-01-27T01:52:01;96996.16;;;4.56;100.00
15405;BME280;7801;48.124;11.590;2024-01-27T01:54:26;97004.44;;;4.53;100.00
15405;BME280;7801;48.124;11.590;2024-01-27T01:56:55;97010.53;;;4.47;100.00
15405;BME280;7801;48.124;11.590;2024-01-27T01:59:20;97000.41;;;4.51;100.00
15405;BME280;7801;48.124;11.590;2024-01-27T02:01:46;97000.84;;;4.47;100.00
15405;BME280;7801;48.124;11.590;2024-01-27T02:04:11;97009.12;;;4.76;100.00
15405;BME280;7801;48.124;11.590;2024-01-27T02:06:37;97017.41;;;4.48;100.00
15405;BME280;7801;48.124;11.590;2024-01-27T02:09:02;97006.31;;;4.46;100.00
15405;BME280;7801;48.124;11.590;2024-01-27T02:11:27;97010.84;;;4.32;100.00
15405;BME280;7801;48.124;11.590;2024-01-27T02:13:53;97010.66;;;4.34;100.00
15405;BME280;7801;48.124;11.590;2024-01-27T02:16:18;97019.78;;;4.25;100.00
15405;BME280;7801;48.124;11.590;2024-01-27T02:18:44;97030.63;;;4.66;100.00
15405;BME280;7801;48.124;11.590;2024-01-27T02:21:09;97033.59;;;4.45;100.00
15405;BME280;7801;48.124;11.590;2024-01-27T02:23:35;97042.31;;;4.39;100.00
15405;BME280;7801;48.124;11.590;2024-01-27T02:26:00;97036.22;;;4.45;100.00
15405;BME280;7801;48.124;11.590;2024-01-27T02:28:25;97030.47;;;4.30;100.00
15405;BME280;7801;48.124;11.590;2024-01-27T02:30:51;97030.75;;;4.46;100.00
15405;BME280;7801;48.124;11.590;2024-01-27T02:33:16;97027.69;;;4.56;99.57
15405;BME280;7801;48.124;11.590;2024-01-27T02:35:41;97033.97;;;4.48;99.80
15405;BME280;7801;48.124;11.590;2024-01-27T02:38:09;97031.91;;;4.57;99.02
15405;BME280;7801;48.124;11.590;2024-01-27T02:40:34;97024.88;;;4.51;98.75
15405;BME280;7801;48.124;11.590;2024-01-27T02:42:59;97027.72;;;4.49;98.80
15405;BME280;7801;48.124;11.590;2024-01-27T02:45:25;97020.22;;;4.53;98.49
15405;BME280;7801;48.124;11.590;2024-01-27T02:47:50;97027.91;;;4.48;98.51
15405;BME280;7801;48.124;11.590;2024-01-27T02:50:15;97022.56;;;4.61;97.20
15405;BME280;7801;48.124;11.590;2024-01-27T02:52:41;97026.53;;;4.45;98.53
15405;BME280;7801;48.124;11.590;2024-01-27T02:55:06;97023.50;;;4.42;98.48
15405;BME280;7801;48.124;11.590;2024-01-27T02:57:32;97036.91;;;4.34;98.76
15405;BME280;7801;48.124;11.590;2024-01-27T02:59:57;97042.00;;;4.22;99.77
15405;BME280;7801;48.124;11.590;2024-01-27T03:02:22;97029.25;;;4.32;99.38
15405;BME280;7801;48.124;11.590;2024-01-27T03:04:48;97032.41;;;4.41;99.07
15405;BME280;7801;48.124;11.590;2024-01-27T03:07:13;97032.88;;;4.31;99.18
15405;BME280;7801;48.124;11.590;2024-01-27T03:09:39;97037.53;;;4.29;99.57
15405;BME280;7801;48.124;11.590;2024-01-27T03:12:04;97040.81;;;4.18;100.00
15405;BME280;7801;48.124;11.590;2024-01-27T03:14:30;97044.50;;;4.48;98.91
15405;BME280;7801;48.124;11.590;2024-01-27T03:16:55;97047.88;;;4.24;99.37
15405;BME280;7801;48.124;11.590;2024-01-27T03:19:21;97039.09;;;4.37;99.89
15405;BME280;7801;48.124;11.590;2024-01-27T03:21:46;97045.31;;;4.49;99.35
15405;BME280;7801;48.124;11.590;2024-01-27T03:24:11;97041.38;;;4.27;99.60
15405;BME280;7801;48.124;11.590;2024-01-27T03:26:37;97055.53;;;4.26;100.00
15405;BME280;7801;48.124;11.590;2024-01-27T03:29:02;97056.78;;;4.17;100.00
15405;BME280;7801;48.124;11.590;2024-01-27T03:31:31;97067.94;;;4.12;100.00
15405;BME280;7801;48.124;11.590;2024-01-27T03:33:58;97064.91;;;4.08;100.00
15405;BME280;7801;48.124;11.590;2024-01-27T03:36:24;97065.63;;;4.29;100.00
15405;BME280;7801;48.124;11.590;2024-01-27T03:38:49;97074.94;;;4.25;100.00
15405;BME280;7801;48.124;11.590;2024-01-27T03:41:15;97081.28;;;4.04;100.00
15405;BME280;7801;48.124;11.590;2024-01-27T03:43:40;97080.94;;;3.87;100.00
15405;BME280;7801;48.124;11.590;2024-01-27T03:46:05;97084.31;;;4.07;100.00
15405;BME280;7801;48.124;11.590;2024-01-27T03:48:32;97089.25;;;4.29;100.00
15405;BME280;7801;48.124;11.590;2024-01-27T03:51:00;97092.22;;;4.39;99.79
15405;BME280;7801;48.124;11.590;2024-01-27T03:53:25;97096.13;;;4.30;99.78
15405;BME280;7801;48.124;11.590;2024-01-27T03:55:51;97095.22;;;4.11;100.00
15405;BME280;7801;48.124;11.590;2024-01-27T03:58:16;97100.88;;;4.01;100.00
15405;BME280;7801;48.124;11.590;2024-01-27T04:00:42;97104.91;;;4.10;100.00
15405;BME280;7801;48.124;11.590;2024-01-27T04:03:07;97110.69;;;4.26;100.00
15405;BME280;7801;48.124;11.590;2024-01-27T04:05:35;97104.13;;;3.97;100.00
15405;BME280;7801;48.124;11.590;2024-01-27T04:08:01;97096.41;;;4.15;100.00
15405;BME280;7801;48.124;11.590;2024-01-27T04:10:26;97092.53;;;4.18;100.00
15405;BME280;7801;48.124;11.590;2024-01-27T04:12:52;97096.03;;;3.98;100.00
15405;BME280;7801;48.124;11.590;2024-01-27T04:15:17;97102.22;;;4.17;100.00
15405;BME280;7801;48.124;11.590;2024-01-27T04:17:43;97104.16;;;3.90;100.00
15405;BME280;7801;48.124;11.590;2024-01-27T04:20:09;97105.13;;;4.02;100.00
15405;BME280;7801;48.124;11.590;2024-01-27T04:22:35;97096.09;;;3.85;100.00
15405;BME280;7801;48.124;11.590;2024-01-27T04:25:01;97103.31;;;3.96;100.00
15405;BME280;7801;48.124;11.590;2024-01-27T04:27:27;97102.47;;;4.09;100.00
15405;BME280;7801;48.124;11.590;2024-01-27T04:29:52;97106.13;;;4.08;100.00
15405;BME280;7801;48.124;11.590;2024-01-27T04:32:18;97105.37;;;3.94;100.00
15405;BME280;7801;48.124;11.590;2024-01-27T04:34:43;97120.72;;;3.91;100.00
15405;BME280;7801;48.124;11.590;2024-01-27T04:37:08;97114.63;;;4.03;100.00
15405;BME280;7801;48.124;11.590;2024-01-27T04:39:34;97106.47;;;4.18;100.00
15405;BME280;7801;48.124;11.590;2024-01-27T04:41:59;97107.66;;;4.22;100.00
15405;BME280;7801;48.124;11.590;2024-01-27T04:44:25;97108.12;;;4.12;100.00
15405;BME280;7801;48.124;11.590;2024-01-27T04:46:50;97106.31;;;4.13;100.00
15405;BME280;7801;48.124;11.590;2024-01-27T04:49:15;97114.13;;;4.20;100.00
15405;BME280;7801;48.124;11.590;2024-01-27T04:51:41;97117.31;;;3.77;100.00
15405;BME280;7801;48.124;11.590;2024-01-27T04:54:06;97121.34;;;3.86;100.00
15405;BME280;7801;48.124;11.590;2024-01-27T04:56:32;97118.56;;;3.68;100.00
15405;BME280;7801;48.124;11.590;2024-01-27T04:58:57;97114.81;;;3.95;100.00
15405;BME280;7801;48.124;11.590;2024-01-27T05:01:23;97111.78;;;4.11;100.00
15405;BME280;7801;48.124;11.590;2024-01-27T05:03:48;97116.69;;;3.82;100.00
15405;BME280;7801;48.124;11.590;2024-01-27T05:06:13;97119.25;;;4.01;100.00
15405;BME280;7801;48.124;11.590;2024-01-27T05:08:39;97125.28;;;4.15;100.00
15405;BME280;7801;48.124;11.590;2024-01-27T05:11:04;97129.00;;;3.94;100.00
15405;BME280;7801;48.124;11.590;2024-01-27T05:13:30;97133.59;;;3.99;100.00
15405;BME280;7801;48.124;11.590;2024-01-27T05:15:55;97129.44;;;3.71;100.00
15405;BME280;7801;48.124;11.590;2024-01-27T05:18:21;97131.62;;;3.94;100.00
15405;BME280;7801;48.124;11.590;2024-01-27T05:20:47;97142.13;;;3.88;100.00
15405;BME280;7801;48.124;11.590;2024-01-27T05:23:12;97134.06;;;3.89;100.00
15405;BME280;7801;48.124;11.590;2024-01-27T05:25:37;97135.06;;;3.75;100.00
15405;BME280;7801;48.124;11.590;2024-01-27T05:28:04;97138.53;;;3.62;100.00
15405;BME280;7801;48.124;11.590;2024-01-27T05:30:29;97141.38;;;3.67;100.00
15405;BME280;7801;48.124;11.590;2024-01-27T05:32:54;97152.66;;;3.55;100.00
15405;BME280;7801;48.124;11.590;2024-01-27T05:35:20;97149.03;;;3.69;100.00
15405;BME280;7801;48.124;11.590;2024-01-27T05:37:45;97149.81;;;3.83;100.00
15405;BME280;7801;48.124;11.590;2024-01-27T05:40:10;97161.06;;;3.96;100.00
15405;BME280;7801;48.124;11.590;2024-01-27T05:42:36;97159.38;;;4.22;100.00
15405;BME280;7801;48.124;11.590;2024-01-27T05:45:01;97162.22;;;4.27;99.53
15405;BME280;7801;48.124;11.590;2024-01-27T05:47:27;97167.06;;;4.17;100.00
15405;BME280;7801;48.124;11.590;2024-01-27T05:49:52;97164.88;;;4.13;100.00
15405;BME280;7801;48.124;11.590;2024-01-27T05:52:18;97168.94;;;3.96;100.00
15405;BME280;7801;48.124;11.590;2024-01-27T05:54:43;97168.94;;;4.09;100.00
15405;BME280;7801;48.124;11.590;2024-01-27T05:57:08;97168.97;;;3.90;100.00
15405;BME280;7801;48.124;11.590;2024-01-27T05:59:33;97175.16;;;4.22;100.00
15405;BME280;7801;48.124;11.590;2024-01-27T06:01:59;97172.50;;;4.35;100.00
15405;BME280;7801;48.124;11.590;2024-01-27T06:04:24;97181.59;;;4.32;99.45
15405;BME280;7801;48.124;11.590;2024-01-27T06:06:50;97190.09;;;4.21;100.00
15405;BME280;7801;48.124;11.590;2024-01-27T06:09:15;97187.25;;;4.36;99.58
15405;BME280;7801;48.124;11.590;2024-01-27T06:11:40;97186.31;;;4.10;100.00
15405;BME280;7801;48.124;11.590;2024-01-27T06:14:06;97190.75;;;4.03;100.00
15405;BME280;7801;48.124;11.590;2024-01-27T06:16:32;97189.78;;;3.91;100.00
15405;BME280;7801;48.124;11.590;2024-01-27T06:18:58;97189.37;;;3.74;100.00
15405;BME280;7801;48.124;11.590;2024-01-27T06:21:23;97195.84;;;3.85;100.00
15405;BME280;7801;48.124;11.590;2024-01-27T06:23:49;97199.47;;;3.84;100.00
15405;BME280;7801;48.124;11.590;2024-01-27T06:26:14;97207.94;;;3.99;100.00
15405;BME280;7801;48.124;11.590;2024-01-27T06:28:40;97198.03;;;4.08;100.00
15405;BME280;7801;48.124;11.590;2024-01-27T06:31:06;97201.00;;;4.25;100.00
15405;BME280;7801;48.124;11.590;2024-01-27T06:33:32;97206.06;;;4.26;99.64
15405;BME280;7801;48.124;11.590;2024-01-27T06:35:58;97203.87;;;4.03;100.00
15405;BME280;7801;48.124;11.590;2024-01-27T06:38:23;97203.09;;;3.83;100.00
15405;BME280;7801;48.124;11.590;2024-01-27T06:40:48;97207.16;;;3.79;100.00
15405;BME280;7801;48.124;11.590;2024-01-27T06:43:14;97206.34;;;3.65;100.00
15405;BME280;7801;48.124;11.590;2024-01-27T06:45:40;97213.00;;;3.81;100.00
15405;BME280;7801;48.124;11.590;2024-01-27T06:48:06;97209.16;;;3.77;100.00
15405;BME280;7801;48.124;11.590;2024-01-27T06:50:32;97213.22;;;3.93;100.00
15405;BME280;7801;48.124;11.590;2024-01-27T06:52:57;97209.16;;;3.90;100.00
15405;BME280;7801;48.124;11.590;2024-01-27T06:55:22;97211.34;;;4.06;100.00
15405;BME280;7801;48.124;11.590;2024-01-27T06:57:48;97210.56;;;3.79;100.00
15405;BME280;7801;48.124;11.590;2024-01-27T07:00:13;97215.84;;;3.73;100.00
15405;BME280;7801;48.124;11.590;2024-01-27T07:02:40;97216.44;;;3.62;100.00
15405;BME280;7801;48.124;11.590;2024-01-27T07:05:09;97226.31;;;3.60;100.00
15405;BME280;7801;48.124;11.590;2024-01-27T07:07:35;97223.09;;;3.58;100.00
15405;BME280;7801;48.124;11.590;2024-01-27T07:10:00;97211.78;;;3.77;100.00
15405;BME280;7801;48.124;11.590;2024-01-27T07:12:25;97211.97;;;4.08;100.00
15405;BME280;7801;48.124;11.590;2024-01-27T07:14:52;97214.81;;;3.80;100.00
15405;BME280;7801;48.124;11.590;2024-01-27T07:17:17;97214.81;;;3.87;100.00
15405;BME280;7801;48.124;11.590;2024-01-27T07:19:43;97222.91;;;3.92;100.00
15405;BME280;7801;48.124;11.590;2024-01-27T07:22:08;97220.06;;;3.80;100.00
15405;BME280;7801;48.124;11.590;2024-01-27T07:24:34;97225.91;;;3.76;100.00
15405;BME280;7801;48.124;11.590;2024-01-27T07:27:00;97223.09;;;3.91;100.00
15405;BME280;7801;48.124;11.590;2024-01-27T07:29:26;97228.53;;;4.02;100.00
15405;BME280;7801;48.124;11.590;2024-01-27T07:31:51;97232.97;;;4.08;100.00
15405;BME280;7801;48.124;11.590;2024-01-27T07:34:17;97232.59;;;3.85;100.00
15405;BME280;7801;48.124;11.590;2024-01-27T07:36:43;97231.56;;;4.06;100.00
15405;BME280;7801;48.124;11.590;2024-01-27T07:39:09;97232.56;;;3.98;100.00
15405;BME280;7801;48.124;11.590;2024-01-27T07:41:34;97228.94;;;4.12;100.00
15405;BME280;7801;48.124;11.590;2024-01-27T07:44:10;97230.91;;;4.17;100.00
15405;BME280;7801;48.124;11.590;2024-01-27T07:46:40;97231.31;;;4.34;100.00
15405;BME280;7801;48.124;11.590;2024-01-27T07:49:06;97233.72;;;4.29;100.00
15405;BME280;7801;48.124;11.590;2024-01-27T07:51:32;97240.97;;;4.40;100.00
15405;BME280;7801;48.124;11.590;2024-01-27T07:54:01;97241.22;;;4.32;100.00
15405;BME280;7801;48.124;11.590;2024-01-27T07:56:27;97237.41;;;4.14;100.00
15405;BME280;7801;48.124;11.590;2024-01-27T07:58:52;97233.97;;;4.14;100.00
15405;BME280;7801;48.124;11.590;2024-01-27T08:01:18;97236.56;;;4.34;100.00
15405;BME280;7801;48.124;11.590;2024-01-27T08:03:43;97238.53;;;4.38;100.00
15405;BME280;7801;48.124;11.590;2024-01-27T08:06:26;97235.16;;;4.18;100.00
15405;BME280;7801;48.124;11.590;2024-01-27T08:08:52;97239.84;;;3.96;100.00
15405;BME280;7801;48.124;11.590;2024-01-27T08:11:17;97245.91;;;4.03;100.00
15405;BME280;7801;48.124;11.590;2024-01-27T08:13:43;97241.41;;;4.30;100.00
15405;BME280;7801;48.124;11.590;2024-01-27T08:16:08;97243.44;;;4.35;100.00
15405;BME280;7801;48.124;11.590;2024-01-27T08:18:40;97239.66;;;3.91;100.00
15405;BME280;7801;48.124;11.590;2024-01-27T08:21:07;97246.50;;;3.79;100.00
15405;BME280;7801;48.124;11.590;2024-01-27T08:23:33;97243.47;;;3.75;100.00
15405;BME280;7801;48.124;11.590;2024-01-27T08:25:59;97240.88;;;3.82;100.00
15405;BME280;7801;48.124;11.590;2024-01-27T08:28:24;97248.50;;;4.17;100.00
15405;BME280;7801;48.124;11.590;2024-01-27T08:30:49;97250.13;;;4.04;100.00
15405;BME280;7801;48.124;11.590;2024-01-27T08:33:15;97250.75;;;4.13;100.00
15405;BME280;7801;48.124;11.590;2024-01-27T08:35:41;97257.00;;;3.99;100.00
15405;BME280;7801;48.124;11.590;2024-01-27T08:38:06;97252.72;;;4.24;100.00
15405;BME280;7801;48.124;11.590;2024-01-27T08:40:33;97258.78;;;4.18;100.00
15405;BME280;7801;48.124;11.590;2024-01-27T08:42:59;97261.56;;;4.43;100.00
15405;BME280;7801;48.124;11.590;2024-01-27T08:45:24;97265.97;;;4.62;99.88
15405;BME280;7801;48.124;11.590;2024-01-27T08:47:51;97257.53;;;4.47;100.00
15405;BME280;7801;48.124;11.590;2024-01-27T08:50:16;97267.06;;;4.22;100.00
15405;BME280;7801;48.124;11.590;2024-01-27T08:52:41;97262.84;;;4.21;100.00
15405;BME280;7801;48.124;11.590;2024-01-27T08:55:07;97266.50;;;4.06;100.00
15405;BME280;7801;48.124;11.590;2024-01-27T08:57:33;97260.03;;;4.02;100.00
15405;BME280;7801;48.124;11.590;2024-01-27T08:59:58;97260.44;;;4.12;100.00
15405;BME280;7801;48.124;11.590;2024-01-27T09:02:23;97252.94;;;4.23;100.00
15405;BME280;7801;48.124;11.590;2024-01-27T09:04:49;97259.59;;;4.32;100.00
15405;BME280;7801;48.124;11.590;2024-01-27T09:07:14;97268.25;;;4.45;100.00
15405;BME280;7801;48.124;11.590;2024-01-27T09:09:39;97263.03;;;4.32;100.00
15405;BME280;7801;48.124;11.590;2024-01-27T09:12:05;97271.75;;;4.13;100.00
15405;BME280;7801;48.124;11.590;2024-01-27T09:14:31;97267.69;;;4.24;100.00
15405;BME280;7801;48.124;11.590;2024-01-27T09:16:58;97266.00;;;4.49;100.00
15405;BME280;7801;48.124;11.590;2024-01-27T09:19:24;97269.09;;;4.33;100.00
15405;BME280;7801;48.124;11.590;2024-01-27T09:21:49;97275.28;;;4.58;99.64
15405;BME280;7801;48.124;11.590;2024-01-27T09:24:14;97267.19;;;4.60;99.37
15405;BME280;7801;48.124;11.590;2024-01-27T09:26:40;97272.25;;;4.61;98.98
15405;BME280;7801;48.124;11.590;2024-01-27T09:29:06;97271.41;;;4.67;99.01
15405;BME280;7801;48.124;11.590;2024-01-27T09:31:32;97269.81;;;4.60;99.36
15405;BME280;7801;48.124;11.590;2024-01-27T09:33:57;97271.63;;;4.66;98.68
15405;BME280;7801;48.124;11.590;2024-01-27T09:36:23;97266.81;;;4.49;98.17
15405;BME280;7801;48.124;11.590;2024-01-27T09:38:48;97267.84;;;4.48;98.82
15405;BME280;7801;48.124;11.590;2024-01-27T09:41:14;97280.69;;;4.76;97.60
15405;BME280;7801;48.124;11.590;2024-01-27T09:43:44;97276.47;;;4.62;98.13
15405;BME280;7801;48.124;11.590;2024-01-27T09:46:17;97283.75;;;4.60;97.86
15405;BME280;7801;48.124;11.590;2024-01-27T09:48:43;97288.19;;;4.66;96.89
15405;BME280;7801;48.124;11.590;2024-01-27T09:51:09;97294.25;;;4.73;97.39
15405;BME280;7801;48.124;11.590;2024-01-27T09:53:35;97294.66;;;4.77;95.84
15405;BME280;7801;48.124;11.590;2024-01-27T09:56:01;97302.75;;;4.75;96.89
15405;BME280;7801;48.124;11.590;2024-01-27T09:58:29;97299.09;;;4.76;96.32
15405;BME280;7801;48.124;11.590;2024-01-27T10:00:56;97297.41;;;4.95;95.15
15405;BME280;7801;48.124;11.590;2024-01-27T10:03:24;97296.59;;;4.95;96.08
15405;BME280;7801;48.124;11.590;2024-01-27T10:05:51;97306.28;;;5.01;94.99
15405;BME280;7801;48.124;11.590;2024-01-27T10:08:17;97294.31;;;5.11;93.96
15405;BME280;7801;48.124;11.590;2024-01-27T10:10:42;97298.59;;;4.99;94.86
15405;BME280;7801;48.124;11.590;2024-01-27T10:13:09;97306.31;;;4.94;94.42
15405;BME280;7801;48.124;11.590;2024-01-27T10:15:35;97293.31;;;5.06;94.68
15405;BME280;7801;48.124;11.590;2024-01-27T10:18:09;97299.69;;;5.23;94.40
15405;BME280;7801;48.124;11.590;2024-01-27T10:20:39;97305.56;;;5.25;94.88
15405;BME280;7801;48.124;11.590;2024-01-27T10:23:12;97300.56;;;5.48;93.91
15405;BME280;7801;48.124;11.590;2024-01-27T10:25:41;97296.22;;;5.29;93.04
15405;BME280;7801;48.124;11.590;2024-01-27T10:28:07;97286.56;;;5.55;92.68
15405;BME280;7801;48.124;11.590;2024-01-27T10:30:38;97278.19;;;5.39;92.94
15405;BME280;7801;48.124;11.590;2024-01-27T10:33:04;97287.91;;;5.39;93.54
15405;BME280;7801;48.124;11.590;2024-01-27T10:35:30;97287.50;;;5.35;93.99
15405;BME280;7801;48.124;11.590;2024-01-27T10:37:56;97283.25;;;5.34;92.55
15405;BME280;7801;48.124;11.590;2024-01-27T10:40:22;97279.28;;;5.57;90.47
15405;BME280;7801;48.124;11.590;2024-01-27T10:45:39;97280.19;;;5.69;88.58
15405;BME280;7801;48.124;11.590;2024-01-27T10:48:06;97273.69;;;5.71;89.00
15405;BME280;7801;48.124;11.590;2024-01-27T10:50:37;97269.84;;;5.74;89.05
15405;BME280;7801;48.124;11.590;2024-01-27T10:53:04;97270.22;;;5.77;87.89
15405;BME280;7801;48.124;11.590;2024-01-27T10:55:36;97276.78;;;5.62;88.85
15405;BME280;7801;48.124;11.590;2024-01-27T10:58:02;97266.56;;;5.78;89.36
15405;BME280;7801;48.124;11.590;2024-01-27T11:00:29;97263.84;;;5.92;88.20
15405;BME280;7801;48.124;11.590;2024-01-27T11:02:58;97260.41;;;5.91;88.77
15405;BME280;7801;48.124;11.590;2024-01-27T11:05:24;97261.97;;;5.99;87.11
15405;BME280;7801;48.124;11.590;2024-01-27T11:07:50;97260.03;;;6.12;86.89
15405;BME280;7801;48.124;11.590;2024-01-27T11:10:17;97254.09;;;6.17;86.65
15405;BME280;7801;48.124;11.590;2024-01-27T11:12:43;97255.53;;;5.88;85.64
15405;BME280;7801;48.124;11.590;2024-01-27T11:15:09;97251.25;;;6.18;84.75
15405;BME280;7801;48.124;11.590;2024-01-27T11:17:41;97255.59;;;6.06;85.20
15405;BME280;7801;48.124;11.590;2024-01-27T11:20:08;97250.22;;;5.70;85.44
15405;BME280;7801;48.124;11.590;2024-01-27T11:22:34;97245.78;;;5.95;86.08
15405;BME280;7801;48.124;11.590;2024-01-27T11:27:39;97238.75;;;6.50;83.54
15405;BME280;7801;48.124;11.590;2024-01-27T11:30:05;97235.88;;;6.70;83.51
15405;BME280;7801;48.124;11.590;2024-01-27T11:32:31;97234.66;;;6.54;81.96
15405;BME280;7801;48.124;11.590;2024-01-27T11:35:00;97239.34;;;6.34;82.71
15405;BME280;7801;48.124;11.590;2024-01-27T11:37:30;97234.44;;;6.56;82.23
15405;BME280;7801;48.124;11.590;2024-01-27T11:40:06;97239.94;;;6.36;82.85
15405;BME280;7801;48.124;11.590;2024-01-27T11:42:32;97233.91;;;6.47;82.69
15405;BME280;7801;48.124;11.590;2024-01-27T11:44:57;97237.44;;;6.60;80.60
15405;BME280;7801;48.124;11.590;2024-01-27T11:47:23;97238.16;;;6.67;81.48
15405;BME280;7801;48.124;11.590;2024-01-27T11:49:54;97242.03;;;6.46;81.92
15405;BME280;7801;48.124;11.590;2024-01-27T11:52:20;97234.06;;;6.71;80.73
15405;BME280;7801;48.124;11.590;2024-01-27T11:54:58;97239.09;;;6.90;79.20
15405;BME280;7801;48.124;11.590;2024-01-27T11:57:24;97240.81;;;7.15;79.36
15405;BME280;7801;48.124;11.590;2024-01-27T11:59:53;97235.28;;;7.05;79.03
15405;BME280;7801;48.124;11.590;2024-01-27T12:02:18;97228.25;;;6.99;79.66
15405;BME280;7801;48.124;11.590;2024-01-27T12:04:44;97222.47;;;6.90;80.99
15405;BME280;7801;48.124;11.590;2024-01-27T12:07:10;97222.56;;;6.83;79.93
15405;BME280;7801;48.124;11.590;2024-01-27T12:09:36;97224.63;;;6.81;80.79
15405;BME280;7801;48.124;11.590;2024-01-27T12:12:01;97227.31;;;6.75;79.05
15405;BME280;7801;48.124;11.590;2024-01-27T12:14:40;97227.53;;;6.73;77.75
15405;BME280;7801;48.124;11.590;2024-01-27T12:17:08;97222.41;;;6.78;78.83
15405;BME280;7801;48.124;11.590;2024-01-27T12:19:34;97216.97;;;6.92;79.56
15405;BME280;7801;48.124;11.590;2024-01-27T12:22:00;97221.88;;;7.06;79.67
15405;BME280;7801;48.124;11.590;2024-01-27T12:24:25;97218.34;;;6.94;76.00
15405;BME280;7801;48.124;11.590;2024-01-27T12:26:50;97220.78;;;6.96;75.66
15405;BME280;7801;48.124;11.590;2024-01-27T12:29:16;97233.84;;;6.72;75.19
15405;BME280;7801;48.124;11.590;2024-01-27T12:31:41;97227.75;;;6.72;75.51
15405;BME280;7801;48.124;11.590;2024-01-27T12:34:07;97222.69;;;6.88;74.64
15405;BME280;7801;48.124;11.590;2024-01-27T12:36:32;97208.41;;;7.08;75.12
15405;BME280;7801;48.124;11.590;2024-01-27T12:38:59;97214.38;;;7.03;72.45
15405;BME280;7801;48.124;11.590;2024-01-27T12:41:25;97208.75;;;7.00;72.35
15405;BME280;7801;48.124;11.590;2024-01-27T12:43:53;97205.09;;;7.01;74.35
15405;BME280;7801;48.124;11.590;2024-01-27T12:46:19;97207.72;;;7.01;75.26
15405;BME280;7801;48.124;11.590;2024-01-27T12:48:45;97199.84;;;7.12;73.97
15405;BME280;7801;48.124;11.590;2024-01-27T12:51:11;97202.09;;;7.09;73.48
15405;BME280;7801;48.124;11.590;2024-01-27T12:53:38;97197.03;;;6.96;73.62
15405;BME280;7801;48.124;11.590;2024-01-27T12:56:04;97196.81;;;6.97;74.53
15405;BME280;7801;48.124;11.590;2024-01-27T12:58:29;97199.69;;;6.77;74.70
15405;BME280;7801;48.124;11.590;2024-01-27T13:00:54;97191.09;;;7.00;75.23
15405;BME280;7801;48.124;11.590;2024-01-27T13:03:20;97182.03;;;7.08;74.46